sensor_id;sensor_type;location;lat;lon;timestamp;temperature;humidity
58447;DHT22;44240;51.840;7.258;2023-12-20T00:01:56;9.50;87.50
58447;DHT22;44240;51.840;7.258;2023-12-20T00:04:23;9.50;87.50
58447;DHT22;44240;51.840;7.258;2023-12-20T00:06:49;9.50;87.50
58447;DHT22;44240;51.840;7.258;2023-12-20T00:09:16;9.50;87.50
58447;DHT22;44240;51.840;7.258;2023-12-20T00:11:43;9.50;87.50
58447;DHT22;44240;51.840;7.258;2023-12-20T00:14:10;9.50;87.50
58447;DHT22;44240;51.840;7.258;2023-12-20T00:16:36;9.40;87.60
58447;DHT22;44240;51.840;7.258;2023-12-20T00:19:03;9.40;87.70
58447;DHT22;44240;51.840;7.258;2023-12-20T00:21:30;9.40;87.80
58447;DHT22;44240;51.840;7.258;2023-12-20T00:23:57;9.40;87.80
58447;DHT22;44240;51.840;7.258;2023-12-20T00:26:23;9.40;87.80
58447;DHT22;44240;51.840;7.258;2023-12-20T00:28:50;9.40;87.80
58447;DHT22;44240;51.840;7.258;2023-12-20T00:31:17;9.40;87.80
58447;DHT22;44240;51.840;7.258;2023-12-20T00:33:44;9.40;87.80
58447;DHT22;44240;51.840;7.258;2023-12-20T00:36:13;9.40;87.80
58447;DHT22;44240;51.840;7.258;2023-12-20T00:38:39;9.40;87.70
58447;DHT22;44240;51.840;7.258;2023-12-20T00:41:06;9.40;87.70
58447;DHT22;44240;51.840;7.258;2023-12-20T00:43:33;9.30;87.60
58447;DHT22;44240;51.840;7.258;2023-12-20T00:46:00;9.30;87.60
58447;DHT22;44240;51.840;7.258;2023-12-20T00:48:27;9.30;87.60
58447;DHT22;44240;51.840;7.258;2023-12-20T00:50:54;9.30;87.50
58447;DHT22;44240;51.840;7.258;2023-12-20T00:53:20;9.30;87.50
58447;DHT22;44240;51.840;7.258;2023-12-20T00:55:47;9.30;87.50
58447;DHT22;44240;51.840;7.258;2023-12-20T00:58:14;9.30;87.50
58447;DHT22;44240;51.840;7.258;2023-12-20T01:00:42;9.30;87.50
58447;DHT22;44240;51.840;7.258;2023-12-20T01:03:10;9.30;87.40
58447;DHT22;44240;51.840;7.258;2023-12-20T01:05:37;9.20;87.00
58447;DHT22;44240;51.840;7.258;2023-12-20T01:08:04;9.20;87.10
58447;DHT22;44240;51.840;7.258;2023-12-20T01:10:31;9.20;87.10
58447;DHT22;44240;51.840;7.258;2023-12-20T01:12:58;9.20;86.90
58447;DHT22;44240;51.840;7.258;2023-12-20T01:15:25;9.10;87.10
58447;DHT22;44240;51.840;7.258;2023-12-20T01:17:52;9.10;86.90
58447;DHT22;44240;51.840;7.258;2023-12-20T01:20:18;9.10;86.70
58447;DHT22;44240;51.840;7.258;2023-12-20T01:22:47;9.00;86.50
58447;DHT22;44240;51.840;7.258;2023-12-20T01:25:13;9.00;86.50
58447;DHT22;44240;51.840;7.258;2023-12-20T01:27:40;9.00;86.40
58447;DHT22;44240;51.840;7.258;2023-12-20T01:30:08;8.90;86.30
58447;DHT22;44240;51.840;7.258;2023-12-20T01:32:35;8.90;86.20
58447;DHT22;44240;51.840;7.258;2023-12-20T01:35:01;8.90;86.20
58447;DHT22;44240;51.840;7.258;2023-12-20T01:37:29;8.80;86.30
58447;DHT22;44240;51.840;7.258;2023-12-20T01:39:56;8.80;86.30
58447;DHT22;44240;51.840;7.258;2023-12-20T01:42:23;8.80;86.30
58447;DHT22;44240;51.840;7.258;2023-12-20T01:44:50;8.80;86.30
58447;DHT22;44240;51.840;7.258;2023-12-20T01:47:17;8.80;86.20
58447;DHT22;44240;51.840;7.258;2023-12-20T01:49:44;8.70;86.20
58447;DHT22;44240;51.840;7.258;2023-12-20T01:52:11;8.70;86.20
58447;DHT22;44240;51.840;7.258;2023-12-20T01:54:40;8.70;86.20
58447;DHT22;44240;51.840;7.258;2023-12-20T01:57:08;8.70;86.30
58447;DHT22;44240;51.840;7.258;2023-12-20T01:59:37;8.70;86.30
58447;DHT22;44240;51.840;7.258;2023-12-20T02:02:06;8.70;86.30
58447;DHT22;44240;51.840;7.258;2023-12-20T02:04:34;8.70;86.30
58447;DHT22;44240;51.840;7.258;2023-12-20T02:07:02;8.70;86.30
58447;DHT22;44240;51.840;7.258;2023-12-20T02:09:29;8.70;86.30
58447;DHT22;44240;51.840;7.258;2023-12-20T02:11:56;8.60;86.30
58447;DHT22;44240;51.840;7.258;2023-12-20T02:14:22;8.70;86.40
58447;DHT22;44240;51.840;7.258;2023-12-20T02:16:49;8.60;86.30
58447;DHT22;44240;51.840;7.258;2023-12-20T02:19:17;8.60;86.30
58447;DHT22;44240;51.840;7.258;2023-12-20T02:21:46;8.60;86.30
58447;DHT22;44240;51.840;7.258;2023-12-20T02:24:13;8.60;86.20
58447;DHT22;44240;51.840;7.258;2023-12-20T02:26:40;8.60;86.30
58447;DHT22;44240;51.840;7.258;2023-12-20T02:29:11;8.60;86.30
58447;DHT22;44240;51.840;7.258;2023-12-20T02:31:38;8.60;86.30
58447;DHT22;44240;51.840;7.258;2023-12-20T02:34:06;8.60;86.20
58447;DHT22;44240;51.840;7.258;2023-12-20T02:36:33;8.50;86.20
58447;DHT22;44240;51.840;7.258;2023-12-20T02:38:59;8.50;86.20
58447;DHT22;44240;51.840;7.258;2023-12-20T02:41:26;8.50;86.30
58447;DHT22;44240;51.840;7.258;2023-12-20T02:43:53;8.50;86.20
58447;DHT22;44240;51.840;7.258;2023-12-20T02:46:20;8.40;86.20
58447;DHT22;44240;51.840;7.258;2023-12-20T02:48:47;8.40;86.20
58447;DHT22;44240;51.840;7.258;2023-12-20T02:51:14;8.40;86.10
58447;DHT22;44240;51.840;7.258;2023-12-20T02:53:40;8.40;86.20
58447;DHT22;44240;51.840;7.258;2023-12-20T02:56:07;8.30;86.20
58447;DHT22;44240;51.840;7.258;2023-12-20T02:58:34;8.30;86.20
58447;DHT22;44240;51.840;7.258;2023-12-20T03:01:01;8.30;86.20
58447;DHT22;44240;51.840;7.258;2023-12-20T03:03:28;8.30;86.20
58447;DHT22;44240;51.840;7.258;2023-12-20T03:05:55;8.30;86.30
58447;DHT22;44240;51.840;7.258;2023-12-20T03:08:22;8.20;87.20
58447;DHT22;44240;51.840;7.258;2023-12-20T03:10:49;8.20;86.30
58447;DHT22;44240;51.840;7.258;2023-12-20T03:13:16;8.20;86.30
58447;DHT22;44240;51.840;7.258;2023-12-20T03:15:43;8.20;87.30
58447;DHT22;44240;51.840;7.258;2023-12-20T03:18:10;8.10;86.20
58447;DHT22;44240;51.840;7.258;2023-12-20T03:20:37;8.10;86.20
58447;DHT22;44240;51.840;7.258;2023-12-20T03:23:04;8.10;86.30
58447;DHT22;44240;51.840;7.258;2023-12-20T03:25:30;8.10;86.30
58447;DHT22;44240;51.840;7.258;2023-12-20T03:27:57;8.10;86.40
58447;DHT22;44240;51.840;7.258;2023-12-20T03:30:24;8.10;86.20
58447;DHT22;44240;51.840;7.258;2023-12-20T03:32:51;8.10;86.20
58447;DHT22;44240;51.840;7.258;2023-12-20T03:35:18;8.10;86.20
58447;DHT22;44240;51.840;7.258;2023-12-20T03:37:44;8.10;86.30
58447;DHT22;44240;51.840;7.258;2023-12-20T03:40:12;8.10;86.30
58447;DHT22;44240;51.840;7.258;2023-12-20T03:42:38;8.10;86.30
58447;DHT22;44240;51.840;7.258;2023-12-20T03:45:06;8.10;86.30
58447;DHT22;44240;51.840;7.258;2023-12-20T03:47:33;8.00;86.10
58447;DHT22;44240;51.840;7.258;2023-12-20T03:49:59;8.00;86.20
58447;DHT22;44240;51.840;7.258;2023-12-20T03:52:26;8.00;86.30
58447;DHT22;44240;51.840;7.258;2023-12-20T03:54:53;8.00;86.40
58447;DHT22;44240;51.840;7.258;2023-12-20T03:57:20;8.00;86.50
58447;DHT22;44240;51.840;7.258;2023-12-20T03:59:47;8.00;87.60
58447;DHT22;44240;51.840;7.258;2023-12-20T04:02:13;8.00;86.50
58447;DHT22;44240;51.840;7.258;2023-12-20T04:04:40;8.00;86.50
58447;DHT22;44240;51.840;7.258;2023-12-20T04:07:07;8.00;86.40
58447;DHT22;44240;51.840;7.258;2023-12-20T04:09:34;8.00;86.50
58447;DHT22;44240;51.840;7.258;2023-12-20T04:12:01;8.00;86.60
58447;DHT22;44240;51.840;7.258;2023-12-20T04:14:28;8.00;86.50
58447;DHT22;44240;51.840;7.258;2023-12-20T04:16:54;8.00;86.50
58447;DHT22;44240;51.840;7.258;2023-12-20T04:19:21;7.90;86.50
58447;DHT22;44240;51.840;7.258;2023-12-20T04:21:48;7.90;86.60
58447;DHT22;44240;51.840;7.258;2023-12-20T04:24:15;7.90;86.50
58447;DHT22;44240;51.840;7.258;2023-12-20T04:26:42;8.00;86.60
58447;DHT22;44240;51.840;7.258;2023-12-20T04:29:08;7.90;86.60
58447;DHT22;44240;51.840;7.258;2023-12-20T04:31:35;7.90;86.70
58447;DHT22;44240;51.840;7.258;2023-12-20T04:34:02;7.90;86.60
58447;DHT22;44240;51.840;7.258;2023-12-20T04:36:29;7.90;86.70
58447;DHT22;44240;51.840;7.258;2023-12-20T04:38:56;7.90;86.70
58447;DHT22;44240;51.840;7.258;2023-12-20T04:41:23;8.00;86.80
58447;DHT22;44240;51.840;7.258;2023-12-20T04:43:50;8.00;86.80
58447;DHT22;44240;51.840;7.258;2023-12-20T04:46:17;8.00;86.80
58447;DHT22;44240;51.840;7.258;2023-12-20T04:48:43;7.90;86.80
58447;DHT22;44240;51.840;7.258;2023-12-20T04:51:10;8.00;86.90
58447;DHT22;44240;51.840;7.258;2023-12-20T04:53:37;7.90;86.80
58447;DHT22;44240;51.840;7.258;2023-12-20T04:56:04;8.00;86.80
58447;DHT22;44240;51.840;7.258;2023-12-20T04:58:31;8.00;86.80
58447;DHT22;44240;51.840;7.258;2023-12-20T05:00:58;8.00;86.80
58447;DHT22;44240;51.840;7.258;2023-12-20T05:03:25;8.00;86.80
58447;DHT22;44240;51.840;7.258;2023-12-20T05:05:51;8.00;86.70
58447;DHT22;44240;51.840;7.258;2023-12-20T05:08:18;8.00;86.70
58447;DHT22;44240;51.840;7.258;2023-12-20T05:10:46;8.00;86.60
58447;DHT22;44240;51.840;7.258;2023-12-20T05:13:13;8.00;86.60
58447;DHT22;44240;51.840;7.258;2023-12-20T05:15:40;8.00;86.60
58447;DHT22;44240;51.840;7.258;2023-12-20T05:18:06;8.00;86.50
58447;DHT22;44240;51.840;7.258;2023-12-20T05:20:33;7.90;86.50
58447;DHT22;44240;51.840;7.258;2023-12-20T05:23:00;8.00;86.60
58447;DHT22;44240;51.840;7.258;2023-12-20T05:25:27;7.90;86.60
58447;DHT22;44240;51.840;7.258;2023-12-20T05:27:54;8.00;86.70
58447;DHT22;44240;51.840;7.258;2023-12-20T05:30:21;8.00;86.70
58447;DHT22;44240;51.840;7.258;2023-12-20T05:32:47;8.00;86.70
58447;DHT22;44240;51.840;7.258;2023-12-20T05:35:15;8.00;86.70
58447;DHT22;44240;51.840;7.258;2023-12-20T05:37:42;8.00;86.60
58447;DHT22;44240;51.840;7.258;2023-12-20T05:40:10;8.00;86.60
58447;DHT22;44240;51.840;7.258;2023-12-20T05:42:37;8.00;86.50
58447;DHT22;44240;51.840;7.258;2023-12-20T05:45:05;8.00;86.40
58447;DHT22;44240;51.840;7.258;2023-12-20T05:47:32;8.00;86.50
58447;DHT22;44240;51.840;7.258;2023-12-20T05:49:59;8.00;86.50
58447;DHT22;44240;51.840;7.258;2023-12-20T05:52:26;8.00;86.40
58447;DHT22;44240;51.840;7.258;2023-12-20T05:54:52;8.00;86.50
58447;DHT22;44240;51.840;7.258;2023-12-20T05:57:19;7.90;86.40
58447;DHT22;44240;51.840;7.258;2023-12-20T05:59:46;8.00;86.50
58447;DHT22;44240;51.840;7.258;2023-12-20T06:02:13;8.00;86.60
58447;DHT22;44240;51.840;7.258;2023-12-20T06:04:42;8.00;86.50
58447;DHT22;44240;51.840;7.258;2023-12-20T06:07:13;8.00;86.50
58447;DHT22;44240;51.840;7.258;2023-12-20T06:09:40;8.00;86.50
58447;DHT22;44240;51.840;7.258;2023-12-20T06:12:07;8.00;86.50
58447;DHT22;44240;51.840;7.258;2023-12-20T06:14:37;8.00;86.60
58447;DHT22;44240;51.840;7.258;2023-12-20T06:17:04;8.00;86.50
58447;DHT22;44240;51.840;7.258;2023-12-20T06:19:31;8.00;86.50
58447;DHT22;44240;51.840;7.258;2023-12-20T06:21:57;8.00;86.60
58447;DHT22;44240;51.840;7.258;2023-12-20T06:24:24;8.00;86.50
58447;DHT22;44240;51.840;7.258;2023-12-20T06:26:54;8.00;87.40
58447;DHT22;44240;51.840;7.258;2023-12-20T06:29:22;8.00;86.50
58447;DHT22;44240;51.840;7.258;2023-12-20T06:31:49;8.10;86.40
58447;DHT22;44240;51.840;7.258;2023-12-20T06:34:16;8.10;86.30
58447;DHT22;44240;51.840;7.258;2023-12-20T06:36:42;8.10;86.30
58447;DHT22;44240;51.840;7.258;2023-12-20T06:39:09;8.10;86.40
58447;DHT22;44240;51.840;7.258;2023-12-20T06:41:38;8.10;86.50
58447;DHT22;44240;51.840;7.258;2023-12-20T06:44:05;8.10;86.40
58447;DHT22;44240;51.840;7.258;2023-12-20T06:46:32;8.10;86.30
58447;DHT22;44240;51.840;7.258;2023-12-20T06:48:59;8.10;86.40
58447;DHT22;44240;51.840;7.258;2023-12-20T06:51:26;8.10;86.40
58447;DHT22;44240;51.840;7.258;2023-12-20T06:53:53;8.10;87.40
58447;DHT22;44240;51.840;7.258;2023-12-20T06:56:19;8.10;86.20
58447;DHT22;44240;51.840;7.258;2023-12-20T06:58:47;8.10;86.30
58447;DHT22;44240;51.840;7.258;2023-12-20T07:01:15;8.10;86.20
58447;DHT22;44240;51.840;7.258;2023-12-20T07:03:42;8.10;86.20
58447;DHT22;44240;51.840;7.258;2023-12-20T07:06:09;8.10;86.20
58447;DHT22;44240;51.840;7.258;2023-12-20T07:08:36;8.10;86.30
58447;DHT22;44240;51.840;7.258;2023-12-20T07:11:02;8.20;86.30
58447;DHT22;44240;51.840;7.258;2023-12-20T07:13:30;8.20;86.20
58447;DHT22;44240;51.840;7.258;2023-12-20T07:15:57;8.20;86.10
58447;DHT22;44240;51.840;7.258;2023-12-20T07:18:23;8.20;86.00
58447;DHT22;44240;51.840;7.258;2023-12-20T07:20:50;8.20;86.10
58447;DHT22;44240;51.840;7.258;2023-12-20T07:23:17;8.20;86.30
58447;DHT22;44240;51.840;7.258;2023-12-20T07:25:46;8.20;86.20
58447;DHT22;44240;51.840;7.258;2023-12-20T07:28:13;8.20;86.10
58447;DHT22;44240;51.840;7.258;2023-12-20T07:30:39;8.20;86.10
58447;DHT22;44240;51.840;7.258;2023-12-20T07:33:06;8.20;86.00
58447;DHT22;44240;51.840;7.258;2023-12-20T07:35:35;8.20;86.20
58447;DHT22;44240;51.840;7.258;2023-12-20T07:38:02;8.30;86.20
58447;DHT22;44240;51.840;7.258;2023-12-20T07:40:29;8.30;86.10
58447;DHT22;44240;51.840;7.258;2023-12-20T07:42:56;8.30;86.20
58447;DHT22;44240;51.840;7.258;2023-12-20T07:45:23;8.30;86.10
58447;DHT22;44240;51.840;7.258;2023-12-20T07:47:50;8.30;85.90
58447;DHT22;44240;51.840;7.258;2023-12-20T07:50:17;8.30;85.90
58447;DHT22;44240;51.840;7.258;2023-12-20T07:52:43;8.40;85.80
58447;DHT22;44240;51.840;7.258;2023-12-20T07:55:10;8.40;85.80
58447;DHT22;44240;51.840;7.258;2023-12-20T07:57:37;8.30;86.80
58447;DHT22;44240;51.840;7.258;2023-12-20T08:00:04;8.40;85.90
58447;DHT22;44240;51.840;7.258;2023-12-20T08:02:32;8.40;85.80
58447;DHT22;44240;51.840;7.258;2023-12-20T08:04:58;8.40;85.80
58447;DHT22;44240;51.840;7.258;2023-12-20T08:07:25;8.40;85.80
58447;DHT22;44240;51.840;7.258;2023-12-20T08:09:52;8.40;85.60
58447;DHT22;44240;51.840;7.258;2023-12-20T08:12:19;8.40;85.50
58447;DHT22;44240;51.840;7.258;2023-12-20T08:14:46;8.40;85.50
58447;DHT22;44240;51.840;7.258;2023-12-20T08:17:13;8.50;85.50
58447;DHT22;44240;51.840;7.258;2023-12-20T08:19:42;8.50;85.30
58447;DHT22;44240;51.840;7.258;2023-12-20T08:22:09;8.50;85.40
58447;DHT22;44240;51.840;7.258;2023-12-20T08:24:36;8.50;85.50
58447;DHT22;44240;51.840;7.258;2023-12-20T08:27:03;8.50;85.10
58447;DHT22;44240;51.840;7.258;2023-12-20T08:29:30;8.60;84.80
58447;DHT22;44240;51.840;7.258;2023-12-20T08:31:57;8.50;84.80
58447;DHT22;44240;51.840;7.258;2023-12-20T08:34:24;8.60;84.70
58447;DHT22;44240;51.840;7.258;2023-12-20T08:36:51;8.50;84.70
58447;DHT22;44240;51.840;7.258;2023-12-20T08:39:18;8.50;84.80
58447;DHT22;44240;51.840;7.258;2023-12-20T08:41:45;8.60;84.80
58447;DHT22;44240;51.840;7.258;2023-12-20T08:44:12;8.60;84.70
58447;DHT22;44240;51.840;7.258;2023-12-20T08:46:38;8.60;84.70
58447;DHT22;44240;51.840;7.258;2023-12-20T08:49:05;8.60;84.60
58447;DHT22;44240;51.840;7.258;2023-12-20T08:51:32;8.60;84.60
58447;DHT22;44240;51.840;7.258;2023-12-20T08:54:00;8.60;84.50
58447;DHT22;44240;51.840;7.258;2023-12-20T08:56:27;8.60;84.30
58447;DHT22;44240;51.840;7.258;2023-12-20T08:58:53;8.70;84.20
58447;DHT22;44240;51.840;7.258;2023-12-20T09:01:20;8.70;83.90
58447;DHT22;44240;51.840;7.258;2023-12-20T09:03:47;8.70;83.90
58447;DHT22;44240;51.840;7.258;2023-12-20T09:06:14;8.70;84.10
58447;DHT22;44240;51.840;7.258;2023-12-20T09:08:41;8.70;83.80
58447;DHT22;44240;51.840;7.258;2023-12-20T09:11:08;8.70;83.90
58447;DHT22;44240;51.840;7.258;2023-12-20T09:13:35;8.70;83.80
58447;DHT22;44240;51.840;7.258;2023-12-20T09:16:03;8.70;83.70
58447;DHT22;44240;51.840;7.258;2023-12-20T09:18:29;8.70;83.90
58447;DHT22;44240;51.840;7.258;2023-12-20T09:20:56;8.80;83.90
58447;DHT22;44240;51.840;7.258;2023-12-20T09:23:23;8.80;83.90
58447;DHT22;44240;51.840;7.258;2023-12-20T09:25:50;8.80;83.70
58447;DHT22;44240;51.840;7.258;2023-12-20T09:28:20;8.80;83.50
58447;DHT22;44240;51.840;7.258;2023-12-20T09:30:47;8.80;83.40
58447;DHT22;44240;51.840;7.258;2023-12-20T09:33:14;8.90;83.40
58447;DHT22;44240;51.840;7.258;2023-12-20T09:35:42;8.90;83.40
58447;DHT22;44240;51.840;7.258;2023-12-20T09:38:08;8.90;83.20
58447;DHT22;44240;51.840;7.258;2023-12-20T09:40:36;8.90;83.30
58447;DHT22;44240;51.840;7.258;2023-12-20T09:43:10;8.90;83.50
58447;DHT22;44240;51.840;7.258;2023-12-20T09:45:39;8.90;83.50
58447;DHT22;44240;51.840;7.258;2023-12-20T09:48:07;8.90;83.40
58447;DHT22;44240;51.840;7.258;2023-12-20T09:50:37;8.90;83.40
58447;DHT22;44240;51.840;7.258;2023-12-20T09:53:05;9.00;83.50
58447;DHT22;44240;51.840;7.258;2023-12-20T09:55:36;9.00;83.50
58447;DHT22;44240;51.840;7.258;2023-12-20T09:58:04;8.90;83.40
58447;DHT22;44240;51.840;7.258;2023-12-20T10:00:31;8.90;83.60
58447;DHT22;44240;51.840;7.258;2023-12-20T10:03:00;9.00;84.60
58447;DHT22;44240;51.840;7.258;2023-12-20T10:05:31;9.00;83.60
58447;DHT22;44240;51.840;7.258;2023-12-20T10:08:00;9.00;83.80
58447;DHT22;44240;51.840;7.258;2023-12-20T10:10:28;9.00;83.80
58447;DHT22;44240;51.840;7.258;2023-12-20T10:13:11;9.00;83.90
58447;DHT22;44240;51.840;7.258;2023-12-20T10:15:38;9.00;84.00
58447;DHT22;44240;51.840;7.258;2023-12-20T10:18:06;9.00;84.20
58447;DHT22;44240;51.840;7.258;2023-12-20T10:20:34;9.00;84.10
58447;DHT22;44240;51.840;7.258;2023-12-20T10:23:01;9.00;84.30
58447;DHT22;44240;51.840;7.258;2023-12-20T10:25:28;9.00;84.30
58447;DHT22;44240;51.840;7.258;2023-12-20T10:28:25;9.00;84.40
58447;DHT22;44240;51.840;7.258;2023-12-20T10:30:55;9.00;84.40
58447;DHT22;44240;51.840;7.258;2023-12-20T10:33:28;9.00;84.50
58447;DHT22;44240;51.840;7.258;2023-12-20T10:35:55;9.00;84.40
58447;DHT22;44240;51.840;7.258;2023-12-20T10:38:23;9.10;84.50
58447;DHT22;44240;51.840;7.258;2023-12-20T10:40:54;9.00;84.40
58447;DHT22;44240;51.840;7.258;2023-12-20T10:43:24;9.00;84.60
58447;DHT22;44240;51.840;7.258;2023-12-20T10:45:53;9.10;84.70
58447;DHT22;44240;51.840;7.258;2023-12-20T10:48:21;9.00;84.80
58447;DHT22;44240;51.840;7.258;2023-12-20T10:50:49;9.10;84.90
58447;DHT22;44240;51.840;7.258;2023-12-20T10:53:16;9.10;84.80
58447;DHT22;44240;51.840;7.258;2023-12-20T10:55:43;9.10;84.80
58447;DHT22;44240;51.840;7.258;2023-12-20T10:58:11;9.10;84.80
58447;DHT22;44240;51.840;7.258;2023-12-20T11:00:40;9.10;84.90
58447;DHT22;44240;51.840;7.258;2023-12-20T11:03:09;9.10;84.90
58447;DHT22;44240;51.840;7.258;2023-12-20T11:08:58;9.00;85.20
58447;DHT22;44240;51.840;7.258;2023-12-20T11:15:47;9.00;85.40
58447;DHT22;44240;51.840;7.258;2023-12-20T11:18:15;9.10;85.50
58447;DHT22;44240;51.840;7.258;2023-12-20T11:20:42;9.10;85.50
58447;DHT22;44240;51.840;7.258;2023-12-20T11:23:09;9.10;85.20
58447;DHT22;44240;51.840;7.258;2023-12-20T11:25:52;9.10;85.30
58447;DHT22;44240;51.840;7.258;2023-12-20T11:28:23;9.10;85.30
58447;DHT22;44240;51.840;7.258;2023-12-20T11:30:52;9.10;85.30
58447;DHT22;44240;51.840;7.258;2023-12-20T11:33:24;9.10;85.50
58447;DHT22;44240;51.840;7.258;2023-12-20T11:35:56;9.10;85.50
58447;DHT22;44240;51.840;7.258;2023-12-20T11:38:24;9.10;85.50
58447;DHT22;44240;51.840;7.258;2023-12-20T11:40:53;9.20;85.40
58447;DHT22;44240;51.840;7.258;2023-12-20T11:43:31;9.20;86.10
58447;DHT22;44240;51.840;7.258;2023-12-20T11:46:06;9.20;85.10
58447;DHT22;44240;51.840;7.258;2023-12-20T11:48:38;9.20;85.10
58447;DHT22;44240;51.840;7.258;2023-12-20T11:51:10;9.20;85.10
58447;DHT22;44240;51.840;7.258;2023-12-20T11:53:37;9.30;86.20
58447;DHT22;44240;51.840;7.258;2023-12-20T11:56:06;9.20;84.90
58447;DHT22;44240;51.840;7.258;2023-12-20T11:58:36;9.30;85.10
58447;DHT22;44240;51.840;7.258;2023-12-20T12:01:04;9.30;85.10
58447;DHT22;44240;51.840;7.258;2023-12-20T12:03:31;9.30;84.80
58447;DHT22;44240;51.840;7.258;2023-12-20T12:05:59;9.30;84.80
58447;DHT22;44240;51.840;7.258;2023-12-20T12:08:27;9.30;84.70
58447;DHT22;44240;51.840;7.258;2023-12-20T12:10:54;9.30;84.80
58447;DHT22;44240;51.840;7.258;2023-12-20T12:13:21;9.30;84.80
58447;DHT22;44240;51.840;7.258;2023-12-20T12:15:48;9.30;85.00
58447;DHT22;44240;51.840;7.258;2023-12-20T12:18:17;9.40;85.00
58447;DHT22;44240;51.840;7.258;2023-12-20T12:20:44;9.40;85.30
58447;DHT22;44240;51.840;7.258;2023-12-20T12:23:10;9.40;84.80
58447;DHT22;44240;51.840;7.258;2023-12-20T12:25:37;9.40;84.80
58447;DHT22;44240;51.840;7.258;2023-12-20T12:28:09;9.50;84.50
58447;DHT22;44240;51.840;7.258;2023-12-20T12:30:36;9.50;84.40
58447;DHT22;44240;51.840;7.258;2023-12-20T12:33:12;9.50;84.50
58447;DHT22;44240;51.840;7.258;2023-12-20T12:35:40;9.50;84.50
58447;DHT22;44240;51.840;7.258;2023-12-20T12:38:07;9.50;84.50
58447;DHT22;44240;51.840;7.258;2023-12-20T12:40:35;9.50;84.50
58447;DHT22;44240;51.840;7.258;2023-12-20T12:43:03;9.50;84.20
58447;DHT22;44240;51.840;7.258;2023-12-20T12:45:31;9.50;84.20
58447;DHT22;44240;51.840;7.258;2023-12-20T12:47:57;9.50;84.10
58447;DHT22;44240;51.840;7.258;2023-12-20T12:50:24;9.50;83.70
58447;DHT22;44240;51.840;7.258;2023-12-20T12:52:51;9.50;84.00
58447;DHT22;44240;51.840;7.258;2023-12-20T12:55:18;9.50;84.10
58447;DHT22;44240;51.840;7.258;2023-12-20T12:57:45;9.50;84.10
58447;DHT22;44240;51.840;7.258;2023-12-20T13:00:12;9.50;83.90
58447;DHT22;44240;51.840;7.258;2023-12-20T13:02:40;9.50;84.10
58447;DHT22;44240;51.840;7.258;2023-12-20T13:05:10;9.50;85.10
58447;DHT22;44240;51.840;7.258;2023-12-20T13:07:37;9.60;83.80
58447;DHT22;44240;51.840;7.258;2023-12-20T13:10:04;9.60;83.80
58447;DHT22;44240;51.840;7.258;2023-12-20T13:12:32;9.60;84.80
58447;DHT22;44240;51.840;7.258;2023-12-20T13:14:59;9.60;83.80
58447;DHT22;44240;51.840;7.258;2023-12-20T13:17:26;9.60;83.50
58447;DHT22;44240;51.840;7.258;2023-12-20T13:19:55;9.60;83.30
58447;DHT22;44240;51.840;7.258;2023-12-20T13:22:22;9.60;83.40
58447;DHT22;44240;51.840;7.258;2023-12-20T13:24:50;9.60;83.30
58447;DHT22;44240;51.840;7.258;2023-12-20T13:27:17;9.60;83.30
58447;DHT22;44240;51.840;7.258;2023-12-20T13:29:44;9.70;82.80
58447;DHT22;44240;51.840;7.258;2023-12-20T13:32:10;9.70;82.90
58447;DHT22;44240;51.840;7.258;2023-12-20T13:34:37;9.70;82.70
58447;DHT22;44240;51.840;7.258;2023-12-20T13:37:05;9.70;82.50
58447;DHT22;44240;51.840;7.258;2023-12-20T13:39:31;9.70;82.60
58447;DHT22;44240;51.840;7.258;2023-12-20T13:41:58;9.70;82.90
58447;DHT22;44240;51.840;7.258;2023-12-20T13:44:27;9.70;82.50
58447;DHT22;44240;51.840;7.258;2023-12-20T13:46:54;9.70;82.70
58447;DHT22;44240;51.840;7.258;2023-12-20T13:49:20;9.70;82.70
58447;DHT22;44240;51.840;7.258;2023-12-20T13:51:53;9.70;82.60
58447;DHT22;44240;51.840;7.258;2023-12-20T13:54:21;9.70;82.60
58447;DHT22;44240;51.840;7.258;2023-12-20T13:56:48;9.70;82.60
58447;DHT22;44240;51.840;7.258;2023-12-20T13:59:33;9.70;82.50
58447;DHT22;44240;51.840;7.258;2023-12-20T14:01:59;9.70;82.70
58447;DHT22;44240;51.840;7.258;2023-12-20T14:04:27;9.70;82.70
58447;DHT22;44240;51.840;7.258;2023-12-20T14:07:09;9.70;82.80
58447;DHT22;44240;51.840;7.258;2023-12-20T14:09:37;9.70;82.60
58447;DHT22;44240;51.840;7.258;2023-12-20T14:12:04;9.70;82.50
58447;DHT22;44240;51.840;7.258;2023-12-20T14:14:31;9.70;82.70
58447;DHT22;44240;51.840;7.258;2023-12-20T14:16:58;9.80;82.60
58447;DHT22;44240;51.840;7.258;2023-12-20T14:19:25;9.80;82.60
58447;DHT22;44240;51.840;7.258;2023-12-20T14:21:52;9.70;82.50
58447;DHT22;44240;51.840;7.258;2023-12-20T14:24:19;9.80;82.70
58447;DHT22;44240;51.840;7.258;2023-12-20T14:26:45;9.70;82.80
58447;DHT22;44240;51.840;7.258;2023-12-20T14:29:12;9.70;84.10
58447;DHT22;44240;51.840;7.258;2023-12-20T14:31:39;9.70;83.20
58447;DHT22;44240;51.840;7.258;2023-12-20T14:34:07;9.70;83.20
58447;DHT22;44240;51.840;7.258;2023-12-20T14:36:35;9.70;83.20
58447;DHT22;44240;51.840;7.258;2023-12-20T14:39:02;9.70;83.30
58447;DHT22;44240;51.840;7.258;2023-12-20T14:41:30;9.70;83.50
58447;DHT22;44240;51.840;7.258;2023-12-20T14:43:58;9.70;83.60
58447;DHT22;44240;51.840;7.258;2023-12-20T14:46:26;9.70;83.70
58447;DHT22;44240;51.840;7.258;2023-12-20T14:48:55;9.70;83.90
58447;DHT22;44240;51.840;7.258;2023-12-20T14:51:21;9.60;83.90
58447;DHT22;44240;51.840;7.258;2023-12-20T14:53:48;9.60;83.90
58447;DHT22;44240;51.840;7.258;2023-12-20T14:56:15;9.60;84.20
58447;DHT22;44240;51.840;7.258;2023-12-20T14:58:42;9.60;84.30
58447;DHT22;44240;51.840;7.258;2023-12-20T15:01:09;9.60;84.50
58447;DHT22;44240;51.840;7.258;2023-12-20T15:03:36;9.60;84.60
58447;DHT22;44240;51.840;7.258;2023-12-20T15:06:03;9.60;84.60
58447;DHT22;44240;51.840;7.258;2023-12-20T15:08:30;9.60;84.60
58447;DHT22;44240;51.840;7.258;2023-12-20T15:10:57;9.50;84.70
58447;DHT22;44240;51.840;7.258;2023-12-20T15:13:25;9.50;84.80
58447;DHT22;44240;51.840;7.258;2023-12-20T15:15:52;9.50;85.00
58447;DHT22;44240;51.840;7.258;2023-12-20T15:18:19;9.50;85.00
58447;DHT22;44240;51.840;7.258;2023-12-20T15:20:46;9.50;85.00
58447;DHT22;44240;51.840;7.258;2023-12-20T15:23:14;9.50;85.00
58447;DHT22;44240;51.840;7.258;2023-12-20T15:25:41;9.60;85.20
58447;DHT22;44240;51.840;7.258;2023-12-20T15:28:07;9.50;85.20
58447;DHT22;44240;51.840;7.258;2023-12-20T15:30:34;9.50;85.40
58447;DHT22;44240;51.840;7.258;2023-12-20T15:33:02;9.50;85.40
58447;DHT22;44240;51.840;7.258;2023-12-20T15:35:33;9.50;85.40
58447;DHT22;44240;51.840;7.258;2023-12-20T15:38:00;9.50;85.90
58447;DHT22;44240;51.840;7.258;2023-12-20T15:40:28;9.50;85.30
58447;DHT22;44240;51.840;7.258;2023-12-20T15:42:55;9.50;85.50
58447;DHT22;44240;51.840;7.258;2023-12-20T15:45:22;9.50;85.50
58447;DHT22;44240;51.840;7.258;2023-12-20T15:47:49;9.50;85.50
58447;DHT22;44240;51.840;7.258;2023-12-20T15:50:17;9.50;85.30
58447;DHT22;44240;51.840;7.258;2023-12-20T15:52:44;9.50;85.20
58447;DHT22;44240;51.840;7.258;2023-12-20T15:55:10;9.50;85.30